sensor_id;sensor_type;location;lat;lon;timestamp;P1;durP1;ratioP1;P2;durP2;ratioP2
25045;SDS011;13044;49.304;12.840;2022-07-26T00:00:12;11.32;;;6.57;;
25045;SDS011;13044;49.304;12.840;2022-07-26T00:02:41;8.73;;;5.75;;
25045;SDS011;13044;49.304;12.840;2022-07-26T00:05:13;9.48;;;6.68;;
25045;SDS011;13044;49.304;12.840;2022-07-26T00:07:42;8.13;;;6.20;;
25045;SDS011;13044;49.304;12.840;2022-07-26T00:10:10;8.40;;;6.05;;
25045;SDS011;13044;49.304;12.840;2022-07-26T00:12:39;7.55;;;6.28;;
25045;SDS011;13044;49.304;12.840;2022-07-26T00:15:07;9.73;;;6.45;;
25045;SDS011;13044;49.304;12.840;2022-07-26T00:17:37;10.43;;;6.45;;
25045;SDS011;13044;49.304;12.840;2022-07-26T00:20:04;8.90;;;6.05;;
25045;SDS011;13044;49.304;12.840;2022-07-26T00:22:32;7.55;;;6.00;;
25045;SDS011;13044;49.304;12.840;2022-07-26T00:25:00;7.78;;;6.25;;
25045;SDS011;13044;49.304;12.840;2022-07-26T00:27:30;10.43;;;6.68;;
25045;SDS011;13044;49.304;12.840;2022-07-26T00:29:58;11.02;;;6.68;;
25045;SDS011;13044;49.304;12.840;2022-07-26T00:32:24;7.78;;;6.13;;
25045;SDS011;13044;49.304;12.840;2022-07-26T00:34:51;7.57;;;6.30;;
25045;SDS011;13044;49.304;12.840;2022-07-26T00:37:18;10.70;;;7.13;;
25045;SDS011;13044;49.304;12.840;2022-07-26T00:39:46;10.45;;;6.53;;
25045;SDS011;13044;49.304;12.840;2022-07-26T00:42:14;8.55;;;6.15;;
25045;SDS011;13044;49.304;12.840;2022-07-26T00:44:43;8.55;;;6.15;;
25045;SDS011;13044;49.304;12.840;2022-07-26T00:47:11;12.55;;;6.82;;
25045;SDS011;13044;49.304;12.840;2022-07-26T00:49:39;12.32;;;6.28;;
25045;SDS011;13044;49.304;12.840;2022-07-26T00:52:08;11.02;;;6.28;;
25045;SDS011;13044;49.304;12.840;2022-07-26T00:54:36;9.85;;;6.72;;
25045;SDS011;13044;49.304;12.840;2022-07-26T00:57:06;13.55;;;6.93;;
25045;SDS011;13044;49.304;12.840;2022-07-26T00:59:33;7.78;;;6.80;;
25045;SDS011;13044;49.304;12.840;2022-07-26T01:02:01;11.98;;;6.32;;
25045;SDS011;13044;49.304;12.840;2022-07-26T01:04:30;10.68;;;6.75;;
25045;SDS011;13044;49.304;12.840;2022-07-26T01:06:57;9.98;;;7.03;;
25045;SDS011;13044;49.304;12.840;2022-07-26T01:09:26;11.30;;;7.00;;
25045;SDS011;13044;49.304;12.840;2022-07-26T01:11:53;10.05;;;7.10;;
25045;SDS011;13044;49.304;12.840;2022-07-26T01:14:20;10.23;;;6.72;;
25045;SDS011;13044;49.304;12.840;2022-07-26T01:16:49;8.55;;;7.13;;
25045;SDS011;13044;49.304;12.840;2022-07-26T01:19:16;8.70;;;7.15;;
25045;SDS011;13044;49.304;12.840;2022-07-26T01:21:44;15.90;;;7.10;;
25045;SDS011;13044;49.304;12.840;2022-07-26T01:24:11;11.68;;;7.10;;
25045;SDS011;13044;49.304;12.840;2022-07-26T01:26:38;9.10;;;6.82;;
25045;SDS011;13044;49.304;12.840;2022-07-26T01:29:05;12.23;;;7.32;;
25045;SDS011;13044;49.304;12.840;2022-07-26T01:31:33;10.25;;;7.15;;
25045;SDS011;13044;49.304;12.840;2022-07-26T01:34:00;9.80;;;7.10;;
25045;SDS011;13044;49.304;12.840;2022-07-26T01:36:27;11.60;;;7.47;;
25045;SDS011;13044;49.304;12.840;2022-07-26T01:38:54;11.68;;;6.82;;
25045;SDS011;13044;49.304;12.840;2022-07-26T01:41:21;12.98;;;7.50;;
25045;SDS011;13044;49.304;12.840;2022-07-26T01:44:03;15.02;;;7.95;;
25045;SDS011;13044;49.304;12.840;2022-07-26T01:46:33;10.63;;;7.85;;
25045;SDS011;13044;49.304;12.840;2022-07-26T01:49:00;16.48;;;7.38;;
25045;SDS011;13044;49.304;12.840;2022-07-26T01:51:28;12.80;;;7.63;;
25045;SDS011;13044;49.304;12.840;2022-07-26T01:53:55;12.30;;;7.35;;
25045;SDS011;13044;49.304;12.840;2022-07-26T01:56:22;12.30;;;7.28;;
25045;SDS011;13044;49.304;12.840;2022-07-26T01:58:49;11.75;;;7.78;;
25045;SDS011;13044;49.304;12.840;2022-07-26T02:01:16;11.50;;;7.60;;
25045;SDS011;13044;49.304;12.840;2022-07-26T02:04:03;15.23;;;7.70;;
25045;SDS011;13044;49.304;12.840;2022-07-26T02:06:31;11.50;;;7.38;;
25045;SDS011;13044;49.304;12.840;2022-07-26T02:08:59;16.88;;;7.65;;
25045;SDS011;13044;49.304;12.840;2022-07-26T02:11:27;13.88;;;7.47;;
25045;SDS011;13044;49.304;12.840;2022-07-26T02:13:54;15.02;;;8.57;;
25045;SDS011;13044;49.304;12.840;2022-07-26T02:16:21;14.52;;;7.47;;
25045;SDS011;13044;49.304;12.840;2022-07-26T02:18:48;10.35;;;7.43;;
25045;SDS011;13044;49.304;12.840;2022-07-26T02:21:14;10.50;;;7.28;;
25045;SDS011;13044;49.304;12.840;2022-07-26T02:23:41;8.32;;;6.88;;
25045;SDS011;13044;49.304;12.840;2022-07-26T02:26:08;10.02;;;7.22;;
25045;SDS011;13044;49.304;12.840;2022-07-26T02:28:35;9.32;;;6.85;;
25045;SDS011;13044;49.304;12.840;2022-07-26T02:31:02;11.02;;;7.38;;
25045;SDS011;13044;49.304;12.840;2022-07-26T02:33:30;14.70;;;7.90;;
25045;SDS011;13044;49.304;12.840;2022-07-26T02:35:57;12.02;;;7.88;;
25045;SDS011;13044;49.304;12.840;2022-07-26T02:38:23;12.23;;;7.70;;
25045;SDS011;13044;49.304;12.840;2022-07-26T02:40:50;16.02;;;7.95;;
25045;SDS011;13044;49.304;12.840;2022-07-26T02:43:18;12.27;;;7.90;;
25045;SDS011;13044;49.304;12.840;2022-07-26T02:45:45;9.50;;;8.40;;
25045;SDS011;13044;49.304;12.840;2022-07-26T02:48:27;10.18;;;7.85;;
25045;SDS011;13044;49.304;12.840;2022-07-26T02:50:55;12.50;;;7.80;;
25045;SDS011;13044;49.304;12.840;2022-07-26T02:53:22;13.93;;;8.55;;
25045;SDS011;13044;49.304;12.840;2022-07-26T02:55:49;11.75;;;8.02;;
25045;SDS011;13044;49.304;12.840;2022-07-26T02:58:16;15.25;;;9.65;;
25045;SDS011;13044;49.304;12.840;2022-07-26T03:00:46;18.42;;;9.48;;
25045;SDS011;13044;49.304;12.840;2022-07-26T03:03:13;15.30;;;9.50;;
25045;SDS011;13044;49.304;12.840;2022-07-26T03:05:40;17.10;;;8.68;;
25045;SDS011;13044;49.304;12.840;2022-07-26T03:08:07;15.82;;;8.60;;
25045;SDS011;13044;49.304;12.840;2022-07-26T03:10:34;12.02;;;8.55;;
25045;SDS011;13044;49.304;12.840;2022-07-26T03:13:01;14.48;;;8.93;;
25045;SDS011;13044;49.304;12.840;2022-07-26T03:15:28;14.68;;;9.00;;
25045;SDS011;13044;49.304;12.840;2022-07-26T03:17:55;14.80;;;9.15;;
25045;SDS011;13044;49.304;12.840;2022-07-26T03:20:22;14.40;;;9.73;;
25045;SDS011;13044;49.304;12.840;2022-07-26T03:22:49;14.57;;;8.73;;
25045;SDS011;13044;49.304;12.840;2022-07-26T03:25:16;11.18;;;7.78;;
25045;SDS011;13044;49.304;12.840;2022-07-26T03:27:43;17.45;;;8.13;;
25045;SDS011;13044;49.304;12.840;2022-07-26T03:30:10;9.95;;;7.72;;
25045;SDS011;13044;49.304;12.840;2022-07-26T03:32:38;11.07;;;7.10;;
25045;SDS011;13044;49.304;12.840;2022-07-26T03:35:05;10.98;;;7.65;;
25045;SDS011;13044;49.304;12.840;2022-07-26T03:37:33;15.27;;;7.55;;
25045;SDS011;13044;49.304;12.840;2022-07-26T03:40:12;11.55;;;7.07;;
25045;SDS011;13044;49.304;12.840;2022-07-26T03:42:41;14.70;;;7.78;;
25045;SDS011;13044;49.304;12.840;2022-07-26T03:45:08;9.65;;;7.03;;
25045;SDS011;13044;49.304;12.840;2022-07-26T03:47:36;15.80;;;7.72;;
25045;SDS011;13044;49.304;12.840;2022-07-26T03:50:04;10.05;;;7.75;;
25045;SDS011;13044;49.304;12.840;2022-07-26T03:52:32;9.27;;;6.60;;
25045;SDS011;13044;49.304;12.840;2022-07-26T03:54:59;10.60;;;7.05;;
25045;SDS011;13044;49.304;12.840;2022-07-26T03:57:46;11.02;;;6.82;;
25045;SDS011;13044;49.304;12.840;2022-07-26T04:00:13;10.13;;;6.63;;
25045;SDS011;13044;49.304;12.840;2022-07-26T04:02:42;8.70;;;6.55;;
25045;SDS011;13044;49.304;12.840;2022-07-26T04:05:10;9.00;;;6.97;;
25045;SDS011;13044;49.304;12.840;2022-07-26T04:07:41;9.30;;;6.60;;
25045;SDS011;13044;49.304;12.840;2022-07-26T04:10:18;11.48;;;6.57;;
25045;SDS011;13044;49.304;12.840;2022-07-26T04:12:47;8.23;;;6.35;;
25045;SDS011;13044;49.304;12.840;2022-07-26T04:15:15;8.57;;;6.72;;
25045;SDS011;13044;49.304;12.840;2022-07-26T04:17:44;9.50;;;6.90;;
25045;SDS011;13044;49.304;12.840;2022-07-26T04:20:11;7.93;;;6.22;;
25045;SDS011;13044;49.304;12.840;2022-07-26T04:22:38;12.95;;;6.95;;
25045;SDS011;13044;49.304;12.840;2022-07-26T04:25:06;11.05;;;6.70;;
25045;SDS011;13044;49.304;12.840;2022-07-26T04:27:35;11.15;;;6.20;;
25045;SDS011;13044;49.304;12.840;2022-07-26T04:30:04;9.80;;;6.30;;
25045;SDS011;13044;49.304;12.840;2022-07-26T04:32:39;8.52;;;6.05;;
25045;SDS011;13044;49.304;12.840;2022-07-26T04:35:07;9.90;;;6.07;;
25045;SDS011;13044;49.304;12.840;2022-07-26T04:37:38;9.68;;;6.65;;
25045;SDS011;13044;49.304;12.840;2022-07-26T04:40:07;9.70;;;6.13;;
25045;SDS011;13044;49.304;12.840;2022-07-26T04:42:38;9.48;;;6.55;;
25045;SDS011;13044;49.304;12.840;2022-07-26T04:45:05;10.50;;;5.70;;
25045;SDS011;13044;49.304;12.840;2022-07-26T04:47:34;9.18;;;6.30;;
25045;SDS011;13044;49.304;12.840;2022-07-26T04:50:02;10.43;;;6.78;;
25045;SDS011;13044;49.304;12.840;2022-07-26T04:52:29;8.20;;;5.65;;
25045;SDS011;13044;49.304;12.840;2022-07-26T04:54:59;7.03;;;5.68;;
25045;SDS011;13044;49.304;12.840;2022-07-26T04:57:25;9.38;;;6.10;;
25045;SDS011;13044;49.304;12.840;2022-07-26T04:59:53;7.95;;;5.82;;
25045;SDS011;13044;49.304;12.840;2022-07-26T05:02:40;10.43;;;6.03;;
25045;SDS011;13044;49.304;12.840;2022-07-26T05:05:07;8.52;;;5.90;;
25045;SDS011;13044;49.304;12.840;2022-07-26T05:07:38;8.00;;;5.82;;
25045;SDS011;13044;49.304;12.840;2022-07-26T05:10:14;8.57;;;5.78;;
25045;SDS011;13044;49.304;12.840;2022-07-26T05:12:43;8.07;;;6.07;;
25045;SDS011;13044;49.304;12.840;2022-07-26T05:15:11;6.65;;;5.60;;
25045;SDS011;13044;49.304;12.840;2022-07-26T05:17:40;7.78;;;5.57;;
25045;SDS011;13044;49.304;12.840;2022-07-26T05:20:08;9.25;;;6.13;;
25045;SDS011;13044;49.304;12.840;2022-07-26T05:22:39;7.78;;;6.00;;
25045;SDS011;13044;49.304;12.840;2022-07-26T05:25:06;8.05;;;5.75;;
25045;SDS011;13044;49.304;12.840;2022-07-26T05:27:34;7.82;;;5.75;;
25045;SDS011;13044;49.304;12.840;2022-07-26T05:30:01;13.52;;;6.10;;
25045;SDS011;13044;49.304;12.840;2022-07-26T05:32:28;10.95;;;5.25;;
25045;SDS011;13044;49.304;12.840;2022-07-26T05:34:55;8.25;;;5.93;;
25045;SDS011;13044;49.304;12.840;2022-07-26T05:37:22;12.88;;;5.78;;
25045;SDS011;13044;49.304;12.840;2022-07-26T05:39:49;7.50;;;5.70;;
25045;SDS011;13044;49.304;12.840;2022-07-26T05:42:16;6.85;;;5.35;;
25045;SDS011;13044;49.304;12.840;2022-07-26T05:44:42;13.55;;;5.60;;
25045;SDS011;13044;49.304;12.840;2022-07-26T05:47:10;9.00;;;5.43;;
25045;SDS011;13044;49.304;12.840;2022-07-26T05:49:37;6.82;;;5.57;;
25045;SDS011;13044;49.304;12.840;2022-07-26T05:52:05;10.43;;;6.40;;
25045;SDS011;13044;49.304;12.840;2022-07-26T05:54:33;8.98;;;6.20;;
25045;SDS011;13044;49.304;12.840;2022-07-26T05:57:01;10.77;;;5.97;;
25045;SDS011;13044;49.304;12.840;2022-07-26T05:59:29;9.65;;;5.53;;
25045;SDS011;13044;49.304;12.840;2022-07-26T06:01:56;10.10;;;5.32;;
25045;SDS011;13044;49.304;12.840;2022-07-26T06:04:23;8.52;;;5.43;;
25045;SDS011;13044;49.304;12.840;2022-07-26T06:06:52;8.52;;;5.90;;
25045;SDS011;13044;49.304;12.840;2022-07-26T06:09:20;9.48;;;5.93;;
25045;SDS011;13044;49.304;12.840;2022-07-26T06:11:52;7.65;;;5.13;;
25045;SDS011;13044;49.304;12.840;2022-07-26T06:14:19;7.40;;;5.20;;
25045;SDS011;13044;49.304;12.840;2022-07-26T06:16:46;7.00;;;5.45;;
25045;SDS011;13044;49.304;12.840;2022-07-26T06:19:13;10.48;;;5.82;;
25045;SDS011;13044;49.304;12.840;2022-07-26T06:21:58;9.75;;;5.57;;
25045;SDS011;13044;49.304;12.840;2022-07-26T06:24:25;11.13;;;5.80;;
25045;SDS011;13044;49.304;12.840;2022-07-26T06:26:53;9.05;;;5.30;;
25045;SDS011;13044;49.304;12.840;2022-07-26T06:29:30;8.93;;;5.93;;
25045;SDS011;13044;49.304;12.840;2022-07-26T06:31:58;8.45;;;5.40;;
25045;SDS011;13044;49.304;12.840;2022-07-26T06:34:25;8.45;;;5.78;;
25045;SDS011;13044;49.304;12.840;2022-07-26T06:36:52;8.63;;;6.00;;
25045;SDS011;13044;49.304;12.840;2022-07-26T06:39:19;7.20;;;5.43;;
25045;SDS011;13044;49.304;12.840;2022-07-26T06:41:46;9.05;;;5.30;;
25045;SDS011;13044;49.304;12.840;2022-07-26T06:44:13;8.32;;;5.80;;
25045;SDS011;13044;49.304;12.840;2022-07-26T06:46:40;8.65;;;5.38;;
25045;SDS011;13044;49.304;12.840;2022-07-26T06:49:07;10.32;;;6.43;;
25045;SDS011;13044;49.304;12.840;2022-07-26T06:51:34;9.70;;;6.50;;
25045;SDS011;13044;49.304;12.840;2022-07-26T06:54:01;10.18;;;5.55;;
25045;SDS011;13044;49.304;12.840;2022-07-26T06:56:31;12.18;;;6.43;;
25045;SDS011;13044;49.304;12.840;2022-07-26T06:58:58;13.63;;;5.75;;
25045;SDS011;13044;49.304;12.840;2022-07-26T07:01:25;10.07;;;6.05;;
25045;SDS011;13044;49.304;12.840;2022-07-26T07:04:17;10.55;;;5.63;;
25045;SDS011;13044;49.304;12.840;2022-07-26T07:06:44;14.05;;;6.50;;
25045;SDS011;13044;49.304;12.840;2022-07-26T07:09:11;14.75;;;5.80;;
25045;SDS011;13044;49.304;12.840;2022-07-26T07:11:41;9.48;;;5.82;;
25045;SDS011;13044;49.304;12.840;2022-07-26T07:14:10;11.25;;;5.47;;
25045;SDS011;13044;49.304;12.840;2022-07-26T07:16:37;10.18;;;5.93;;
25045;SDS011;13044;49.304;12.840;2022-07-26T07:19:04;9.48;;;5.95;;
25045;SDS011;13044;49.304;12.840;2022-07-26T07:21:31;10.45;;;5.80;;
25045;SDS011;13044;49.304;12.840;2022-07-26T07:23:59;15.35;;;5.28;;
25045;SDS011;13044;49.304;12.840;2022-07-26T07:26:27;10.23;;;5.35;;
25045;SDS011;13044;49.304;12.840;2022-07-26T07:28:54;6.95;;;4.28;;
25045;SDS011;13044;49.304;12.840;2022-07-26T07:31:21;12.93;;;4.35;;
25045;SDS011;13044;49.304;12.840;2022-07-26T07:33:56;6.28;;;3.78;;
25045;SDS011;13044;49.304;12.840;2022-07-26T07:36:23;4.18;;;3.30;;
25045;SDS011;13044;49.304;12.840;2022-07-26T07:38:50;10.95;;;3.70;;
25045;SDS011;13044;49.304;12.840;2022-07-26T07:41:17;4.30;;;3.30;;
25045;SDS011;13044;49.304;12.840;2022-07-26T07:43:44;5.10;;;3.50;;
25045;SDS011;13044;49.304;12.840;2022-07-26T07:46:11;5.80;;;3.00;;
25045;SDS011;13044;49.304;12.840;2022-07-26T07:48:39;6.63;;;3.25;;
25045;SDS011;13044;49.304;12.840;2022-07-26T07:51:12;10.93;;;3.63;;
25045;SDS011;13044;49.304;12.840;2022-07-26T07:53:41;10.10;;;3.10;;
25045;SDS011;13044;49.304;12.840;2022-07-26T07:56:21;8.30;;;3.08;;
25045;SDS011;13044;49.304;12.840;2022-07-26T07:58:48;5.25;;;2.92;;
25045;SDS011;13044;49.304;12.840;2022-07-26T08:01:17;7.55;;;2.90;;
25045;SDS011;13044;49.304;12.840;2022-07-26T08:03:44;4.20;;;2.60;;
25045;SDS011;13044;49.304;12.840;2022-07-26T08:06:16;5.10;;;2.90;;
25045;SDS011;13044;49.304;12.840;2022-07-26T08:08:43;8.65;;;2.92;;
25045;SDS011;13044;49.304;12.840;2022-07-26T08:11:13;3.50;;;2.40;;
25045;SDS011;13044;49.304;12.840;2022-07-26T08:13:41;5.65;;;2.28;;
25045;SDS011;13044;49.304;12.840;2022-07-26T08:16:13;7.97;;;2.80;;
25045;SDS011;13044;49.304;12.840;2022-07-26T08:18:40;5.15;;;2.75;;
25045;SDS011;13044;49.304;12.840;2022-07-26T08:21:22;9.77;;;3.35;;
25045;SDS011;13044;49.304;12.840;2022-07-26T08:23:51;7.10;;;2.97;;
25045;SDS011;13044;49.304;12.840;2022-07-26T08:26:18;4.68;;;2.60;;
25045;SDS011;13044;49.304;12.840;2022-07-26T08:28:45;5.47;;;2.50;;
25045;SDS011;13044;49.304;12.840;2022-07-26T08:31:14;7.72;;;2.45;;
25045;SDS011;13044;49.304;12.840;2022-07-26T08:33:41;6.57;;;3.10;;
25045;SDS011;13044;49.304;12.840;2022-07-26T08:36:11;5.65;;;2.58;;
25045;SDS011;13044;49.304;12.840;2022-07-26T08:38:42;4.85;;;2.95;;
25045;SDS011;13044;49.304;12.840;2022-07-26T08:41:13;3.63;;;3.00;;
25045;SDS011;13044;49.304;12.840;2022-07-26T08:43:43;4.75;;;3.00;;
25045;SDS011;13044;49.304;12.840;2022-07-26T08:46:19;5.55;;;2.60;;
25045;SDS011;13044;49.304;12.840;2022-07-26T08:48:53;5.75;;;3.15;;
25045;SDS011;13044;49.304;12.840;2022-07-26T08:51:22;3.70;;;2.83;;
25045;SDS011;13044;49.304;12.840;2022-07-26T08:53:54;4.53;;;2.75;;
25045;SDS011;13044;49.304;12.840;2022-07-26T08:56:34;3.53;;;2.40;;
25045;SDS011;13044;49.304;12.840;2022-07-26T08:59:04;3.63;;;2.45;;
25045;SDS011;13044;49.304;12.840;2022-07-26T09:01:54;4.15;;;2.47;;
25045;SDS011;13044;49.304;12.840;2022-07-26T09:04:32;4.35;;;2.40;;
25045;SDS011;13044;49.304;12.840;2022-07-26T09:12:31;3.17;;;2.33;;
25045;SDS011;13044;49.304;12.840;2022-07-26T09:14:59;5.07;;;2.60;;
25045;SDS011;13044;49.304;12.840;2022-07-26T09:17:38;6.00;;;2.63;;
25045;SDS011;13044;49.304;12.840;2022-07-26T09:22:56;6.72;;;2.45;;
25045;SDS011;13044;49.304;12.840;2022-07-26T09:25:28;5.07;;;2.30;;
25045;SDS011;13044;49.304;12.840;2022-07-26T09:28:27;5.60;;;2.47;;
25045;SDS011;13044;49.304;12.840;2022-07-26T09:30:57;5.00;;;2.55;;
25045;SDS011;13044;49.304;12.840;2022-07-26T09:33:42;2.70;;;2.25;;
25045;SDS011;13044;49.304;12.840;2022-07-26T09:36:14;7.82;;;2.20;;
25045;SDS011;13044;49.304;12.840;2022-07-26T09:38:43;4.45;;;2.10;;
25045;SDS011;13044;49.304;12.840;2022-07-26T09:41:26;6.72;;;2.33;;
25045;SDS011;13044;49.304;12.840;2022-07-26T09:44:03;6.22;;;2.33;;
25045;SDS011;13044;49.304;12.840;2022-07-26T09:46:54;4.32;;;2.58;;
25045;SDS011;13044;49.304;12.840;2022-07-26T09:49:24;5.45;;;2.20;;
25045;SDS011;13044;49.304;12.840;2022-07-26T09:52:12;3.97;;;2.33;;
25045;SDS011;13044;49.304;12.840;2022-07-26T09:54:41;9.75;;;2.38;;
25045;SDS011;13044;49.304;12.840;2022-07-26T09:57:13;9.07;;;2.40;;
25045;SDS011;13044;49.304;12.840;2022-07-26T09:59:44;3.08;;;1.95;;
25045;SDS011;13044;49.304;12.840;2022-07-26T10:02:12;18.13;;;2.75;;
25045;SDS011;13044;49.304;12.840;2022-07-26T10:04:40;2.92;;;1.90;;
25045;SDS011;13044;49.304;12.840;2022-07-26T10:07:08;7.55;;;2.50;;
25045;SDS011;13044;49.304;12.840;2022-07-26T10:09:42;6.03;;;2.85;;
25045;SDS011;13044;49.304;12.840;2022-07-26T10:12:15;7.63;;;2.60;;
25045;SDS011;13044;49.304;12.840;2022-07-26T10:20:01;8.38;;;2.58;;
25045;SDS011;13044;49.304;12.840;2022-07-26T10:22:43;4.20;;;2.53;;
25045;SDS011;13044;49.304;12.840;2022-07-26T10:27:52;7.65;;;2.50;;
25045;SDS011;13044;49.304;12.840;2022-07-26T10:30:23;3.10;;;2.25;;
25045;SDS011;13044;49.304;12.840;2022-07-26T10:33:06;3.92;;;2.10;;
25045;SDS011;13044;49.304;12.840;2022-07-26T10:35:39;3.53;;;1.90;;
25045;SDS011;13044;49.304;12.840;2022-07-26T10:41:22;5.47;;;2.33;;
25045;SDS011;13044;49.304;12.840;2022-07-26T10:43:33;2.10;;;1.80;;
25045;SDS011;13044;49.304;12.840;2022-07-26T10:49:00;4.43;;;2.22;;
25045;SDS011;13044;49.304;12.840;2022-07-26T10:51:31;3.58;;;2.10;;
25045;SDS011;13044;49.304;12.840;2022-07-26T10:54:04;4.75;;;1.73;;
25045;SDS011;13044;49.304;12.840;2022-07-26T10:56:35;4.05;;;2.20;;
25045;SDS011;13044;49.304;12.840;2022-07-26T10:59:03;5.13;;;1.98;;
25045;SDS011;13044;49.304;12.840;2022-07-26T11:01:38;6.35;;;2.17;;
25045;SDS011;13044;49.304;12.840;2022-07-26T11:04:20;8.35;;;2.25;;
25045;SDS011;13044;49.304;12.840;2022-07-26T11:06:48;4.38;;;1.75;;
25045;SDS011;13044;49.304;12.840;2022-07-26T11:09:15;5.68;;;1.75;;
25045;SDS011;13044;49.304;12.840;2022-07-26T11:11:46;3.40;;;1.92;;
25045;SDS011;13044;49.304;12.840;2022-07-26T11:14:14;8.45;;;2.00;;
25045;SDS011;13044;49.304;12.840;2022-07-26T11:16:45;6.05;;;2.13;;
25045;SDS011;13044;49.304;12.840;2022-07-26T11:21:54;4.13;;;2.05;;
25045;SDS011;13044;49.304;12.840;2022-07-26T11:24:25;5.03;;;1.98;;
25045;SDS011;13044;49.304;12.840;2022-07-26T11:26:54;2.72;;;1.90;;
25045;SDS011;13044;49.304;12.840;2022-07-26T11:29:29;4.75;;;2.00;;
25045;SDS011;13044;49.304;12.840;2022-07-26T11:32:06;4.93;;;1.95;;
25045;SDS011;13044;49.304;12.840;2022-07-26T11:34:52;5.22;;;2.10;;
25045;SDS011;13044;49.304;12.840;2022-07-26T11:37:27;5.35;;;2.20;;
25045;SDS011;13044;49.304;12.840;2022-07-26T11:39:55;6.13;;;2.10;;
25045;SDS011;13044;49.304;12.840;2022-07-26T11:42:22;1.92;;;1.70;;
25045;SDS011;13044;49.304;12.840;2022-07-26T11:44:49;4.03;;;2.10;;
25045;SDS011;13044;49.304;12.840;2022-07-26T11:47:17;1.95;;;1.75;;
25045;SDS011;13044;49.304;12.840;2022-07-26T11:49:51;3.28;;;1.70;;
25045;SDS011;13044;49.304;12.840;2022-07-26T11:52:38;5.47;;;2.45;;
25045;SDS011;13044;49.304;12.840;2022-07-26T11:55:06;5.20;;;2.20;;
25045;SDS011;13044;49.304;12.840;2022-07-26T11:57:33;3.72;;;2.10;;
25045;SDS011;13044;49.304;12.840;2022-07-26T12:00:00;9.27;;;1.90;;
25045;SDS011;13044;49.304;12.840;2022-07-26T12:02:29;6.38;;;2.00;;
25045;SDS011;13044;49.304;12.840;2022-07-26T12:05:12;2.80;;;2.08;;
25045;SDS011;13044;49.304;12.840;2022-07-26T12:07:55;1.90;;;1.60;;
25045;SDS011;13044;49.304;12.840;2022-07-26T12:10:29;2.88;;;1.90;;
25045;SDS011;13044;49.304;12.840;2022-07-26T12:13:09;5.43;;;1.85;;
25045;SDS011;13044;49.304;12.840;2022-07-26T12:15:58;3.10;;;1.92;;
25045;SDS011;13044;49.304;12.840;2022-07-26T12:18:26;3.83;;;2.03;;
25045;SDS011;13044;49.304;12.840;2022-07-26T12:21:04;5.18;;;1.70;;
25045;SDS011;13044;49.304;12.840;2022-07-26T12:26:20;7.45;;;2.15;;
25045;SDS011;13044;49.304;12.840;2022-07-26T12:28:51;2.45;;;2.10;;
25045;SDS011;13044;49.304;12.840;2022-07-26T12:31:23;6.63;;;2.42;;
25045;SDS011;13044;49.304;12.840;2022-07-26T12:33:52;2.70;;;1.83;;
25045;SDS011;13044;49.304;12.840;2022-07-26T12:36:20;2.58;;;1.75;;
25045;SDS011;13044;49.304;12.840;2022-07-26T12:38:54;6.40;;;2.03;;
25045;SDS011;13044;49.304;12.840;2022-07-26T12:41:36;2.70;;;2.10;;
25045;SDS011;13044;49.304;12.840;2022-07-26T12:44:05;3.15;;;1.63;;
25045;SDS011;13044;49.304;12.840;2022-07-26T12:46:34;6.50;;;2.00;;
25045;SDS011;13044;49.304;12.840;2022-07-26T12:49:02;4.70;;;2.10;;
25045;SDS011;13044;49.304;12.840;2022-07-26T12:51:30;7.18;;;2.33;;
25045;SDS011;13044;49.304;12.840;2022-07-26T12:53:57;2.20;;;1.98;;
25045;SDS011;13044;49.304;12.840;2022-07-26T12:56:24;5.85;;;2.05;;
25045;SDS011;13044;49.304;12.840;2022-07-26T12:58:51;2.92;;;1.70;;
25045;SDS011;13044;49.304;12.840;2022-07-26T13:01:19;5.20;;;2.00;;
25045;SDS011;13044;49.304;12.840;2022-07-26T13:03:46;4.45;;;1.90;;
25045;SDS011;13044;49.304;12.840;2022-07-26T13:06:14;3.70;;;2.00;;
25045;SDS011;13044;49.304;12.840;2022-07-26T13:08:41;2.95;;;2.00;;
25045;SDS011;13044;49.304;12.840;2022-07-26T13:11:08;2.17;;;1.60;;
25045;SDS011;13044;49.304;12.840;2022-07-26T13:13:35;3.35;;;1.92;;
25045;SDS011;13044;49.304;12.840;2022-07-26T13:16:02;4.28;;;2.00;;
25045;SDS011;13044;49.304;12.840;2022-07-26T13:18:36;5.53;;;2.15;;
25045;SDS011;13044;49.304;12.840;2022-07-26T13:21:03;4.18;;;2.00;;
25045;SDS011;13044;49.304;12.840;2022-07-26T13:23:31;2.95;;;2.10;;
25045;SDS011;13044;49.304;12.840;2022-07-26T13:26:00;4.45;;;1.90;;
25045;SDS011;13044;49.304;12.840;2022-07-26T13:28:29;7.93;;;1.95;;
25045;SDS011;13044;49.304;12.840;2022-07-26T13:30:56;7.82;;;1.95;;
25045;SDS011;13044;49.304;12.840;2022-07-26T13:33:23;6.15;;;2.08;;
25045;SDS011;13044;49.304;12.840;2022-07-26T13:35:50;7.38;;;2.28;;
25045;SDS011;13044;49.304;12.840;2022-07-26T13:38:17;5.53;;;2.05;;
25045;SDS011;13044;49.304;12.840;2022-07-26T13:40:45;2.97;;;2.08;;
25045;SDS011;13044;49.304;12.840;2022-07-26T13:43:13;8.10;;;2.22;;
25045;SDS011;13044;49.304;12.840;2022-07-26T13:45:40;4.65;;;2.15;;
25045;SDS011;13044;49.304;12.840;2022-07-26T13:48:07;5.03;;;2.13;;
25045;SDS011;13044;49.304;12.840;2022-07-26T13:50:34;3.10;;;2.00;;
25045;SDS011;13044;49.304;12.840;2022-07-26T13:53:02;8.57;;;2.15;;
25045;SDS011;13044;49.304;12.840;2022-07-26T13:55:29;6.43;;;2.35;;
25045;SDS011;13044;49.304;12.840;2022-07-26T13:57:57;3.20;;;2.10;;
25045;SDS011;13044;49.304;12.840;2022-07-26T14:00:25;5.82;;;2.20;;
25045;SDS011;13044;49.304;12.840;2022-07-26T14:02:53;3.88;;;2.15;;
25045;SDS011;13044;49.304;12.840;2022-07-26T14:05:22;4.13;;;1.90;;
25045;SDS011;13044;49.304;12.840;2022-07-26T14:07:50;3.97;;;2.00;;
25045;SDS011;13044;49.304;12.840;2022-07-26T14:10:18;4.75;;;1.90;;
25045;SDS011;13044;49.304;12.840;2022-07-26T14:12:46;2.38;;;1.98;;
25045;SDS011;13044;49.304;12.840;2022-07-26T14:15:14;4.95;;;2.25;;
25045;SDS011;13044;49.304;12.840;2022-07-26T14:17:47;5.22;;;2.25;;
25045;SDS011;13044;49.304;12.840;2022-07-26T14:20:15;4.68;;;2.20;;
25045;SDS011;13044;49.304;12.840;2022-07-26T14:22:42;6.10;;;2.45;;
25045;SDS011;13044;49.304;12.840;2022-07-26T14:25:10;4.10;;;2.17;;
25045;SDS011;13044;49.304;12.840;2022-07-26T14:27:37;5.22;;;2.20;;
25045;SDS011;13044;49.304;12.840;2022-07-26T14:30:04;2.88;;;1.75;;
25045;SDS011;13044;49.304;12.840;2022-07-26T14:32:32;5.38;;;2.42;;
25045;SDS011;13044;49.304;12.840;2022-07-26T14:34:59;4.38;;;2.17;;
25045;SDS011;13044;49.304;12.840;2022-07-26T14:37:26;3.22;;;2.17;;
25045;SDS011;13044;49.304;12.840;2022-07-26T14:40:10;2.30;;;1.70;;
25045;SDS011;13044;49.304;12.840;2022-07-26T14:42:41;2.47;;;1.80;;
25045;SDS011;13044;49.304;12.840;2022-07-26T14:45:09;3.05;;;1.92;;
25045;SDS011;13044;49.304;12.840;2022-07-26T14:47:38;4.30;;;2.17;;
25045;SDS011;13044;49.304;12.840;2022-07-26T14:50:05;4.95;;;2.20;;
25045;SDS011;13044;49.304;12.840;2022-07-26T14:52:36;3.40;;;1.90;;
25045;SDS011;13044;49.304;12.840;2022-07-26T14:55:08;4.25;;;1.98;;
25045;SDS011;13044;49.304;12.840;2022-07-26T14:57:36;3.45;;;1.98;;
25045;SDS011;13044;49.304;12.840;2022-07-26T15:00:05;4.60;;;1.95;;
25045;SDS011;13044;49.304;12.840;2022-07-26T15:02:38;4.60;;;2.03;;
25045;SDS011;13044;49.304;12.840;2022-07-26T15:05:11;3.38;;;2.00;;
25045;SDS011;13044;49.304;12.840;2022-07-26T15:07:39;3.30;;;2.30;;
25045;SDS011;13044;49.304;12.840;2022-07-26T15:10:09;3.42;;;2.25;;
25045;SDS011;13044;49.304;12.840;2022-07-26T15:12:40;4.78;;;2.42;;